Rechercher aéroport 
image banner adimage banner adimage banner ad
image banner ad

CL37 - Enloe Hospital

Situé à Chico, United States

ICAO - CL37, IATA -

Données fournies par Airmate  

Information générale

Coordonnées: N39°44'31" W121°51'1"
Élévation : 253 feet MSL.
Variation magnétique : 17° East
Voir autres Aéroports à California

Données opérationnelles

Special qualification required
Heure actuelle UTC:
Heure actuelle locale:
Météo à : KCIC - Chico Muni ( 6 km )
METAR: KCIC 270615Z AUTO 16012KT 10SM CLR 28/M02 A2990 RMK AO1
Voir NOTAMs / SUP AIP / TFR affectant cet aéroport [VIEW]
Fréquences de communication: [VIEW]

Pistes:

Coordonnées de l'aéroport

Adresse: Chico United States

Vue satellite de CL37